createdAt,value
2022-07-25T00:00:16.227Z,29.892
2022-07-25T00:05:16.149Z,29.891
2022-07-25T00:10:16.165Z,29.896
2022-07-25T00:15:16.216Z,29.893
2022-07-25T00:20:16.218Z,29.894
2022-07-25T00:25:16.175Z,29.894
2022-07-25T00:30:16.299Z,29.893
2022-07-25T00:35:16.243Z,29.897
2022-07-25T00:40:16.278Z,29.901
2022-07-25T00:45:16.269Z,29.905
2022-07-25T00:50:16.487Z,29.903
2022-07-25T00:55:16.274Z,29.908
2022-07-25T01:00:16.375Z,29.911
2022-07-25T01:05:16.292Z,29.914
2022-07-25T01:10:16.406Z,29.915
2022-07-25T01:15:16.326Z,29.913
2022-07-25T01:20:16.396Z,29.913
2022-07-25T01:25:16.361Z,29.913
2022-07-25T01:30:16.385Z,29.916
2022-07-25T01:35:16.426Z,29.916
2022-07-25T01:40:16.576Z,29.915
2022-07-25T01:45:16.461Z,29.917
2022-07-25T01:50:16.453Z,29.917
2022-07-25T01:55:16.502Z,29.918
2022-07-25T02:00:16.460Z,29.923
2022-07-25T02:05:16.458Z,29.921
2022-07-25T02:10:16.673Z,29.920
2022-07-25T02:15:16.514Z,29.921
2022-07-25T02:20:16.492Z,29.919
2022-07-25T02:25:16.521Z,29.920
2022-07-25T02:30:16.576Z,29.921
2022-07-25T02:35:16.442Z,29.915
2022-07-25T02:40:16.655Z,29.919
2022-07-25T02:45:16.689Z,29.915
2022-07-25T02:50:16.623Z,29.916
2022-07-25T02:55:16.672Z,29.916
2022-07-25T03:00:16.622Z,29.914
2022-07-25T03:05:16.638Z,29.911
2022-07-25T03:10:16.611Z,29.910
2022-07-25T03:15:16.628Z,29.906
2022-07-25T03:20:16.629Z,29.908
2022-07-25T03:25:21.839Z,29.910
2022-07-25T03:30:16.741Z,29.905
2022-07-25T03:35:16.644Z,29.905
2022-07-25T03:40:16.659Z,29.912
2022-07-25T03:45:16.723Z,29.909
2022-07-25T03:50:16.744Z,29.907
2022-07-25T03:55:16.689Z,29.901
2022-07-25T04:00:15.749Z,29.901
2022-07-25T04:05:15.689Z,29.901
2022-07-25T04:10:15.735Z,29.898
2022-07-25T04:15:15.793Z,29.891
2022-07-25T04:20:15.940Z,29.891
2022-07-25T04:25:15.771Z,29.883
2022-07-25T04:30:24.067Z,29.883
2022-07-25T04:35:15.944Z,29.880
2022-07-25T04:40:15.773Z,29.881
2022-07-25T04:45:17.731Z,29.882
2022-07-25T04:50:15.853Z,29.881
2022-07-25T04:55:15.934Z,29.875
2022-07-25T05:00:16.105Z,29.875
2022-07-25T05:05:21.048Z,29.878
2022-07-25T05:10:15.887Z,29.877
2022-07-25T05:15:15.886Z,29.877
2022-07-25T05:20:16.067Z,29.879
2022-07-25T05:25:15.936Z,29.880
2022-07-25T05:30:15.948Z,29.887
2022-07-25T05:35:15.928Z,29.889
2022-07-25T05:40:15.977Z,29.884
2022-07-25T05:45:16.064Z,29.884
2022-07-25T05:50:15.930Z,29.886
2022-07-25T05:55:15.969Z,29.886
2022-07-25T06:00:16.008Z,29.887
2022-07-25T06:05:16.034Z,29.886
2022-07-25T06:10:16.007Z,29.881
2022-07-25T06:15:22.342Z,29.885
2022-07-25T06:20:16.074Z,29.885
2022-07-25T06:25:16.067Z,29.883
2022-07-25T06:30:20.158Z,29.883
2022-07-25T06:35:16.092Z,29.884
2022-07-25T06:40:16.070Z,29.884
2022-07-25T06:45:16.264Z,29.883
2022-07-25T06:50:16.133Z,29.888
2022-07-25T06:55:16.217Z,29.887
2022-07-25T07:00:16.164Z,29.889
2022-07-25T07:05:16.204Z,29.890
2022-07-25T07:10:16.269Z,29.891
2022-07-25T07:15:16.354Z,29.893
2022-07-25T07:20:16.395Z,29.890
2022-07-25T07:25:16.275Z,29.888
2022-07-25T07:30:20.829Z,29.890
2022-07-25T07:35:16.210Z,29.886
2022-07-25T07:40:17.946Z,29.885
2022-07-25T07:45:16.345Z,29.885
2022-07-25T07:50:16.343Z,29.888
2022-07-25T07:55:16.271Z,29.892
2022-07-25T08:00:16.848Z,29.897
2022-07-25T08:05:16.348Z,29.897
2022-07-25T08:10:16.412Z,29.890
2022-07-25T08:15:16.327Z,29.892
2022-07-25T08:20:37.090Z,29.894
2022-07-25T08:25:16.347Z,29.888
2022-07-25T08:30:16.468Z,29.892
2022-07-25T08:35:16.491Z,29.891
2022-07-25T08:40:16.387Z,29.892
2022-07-25T08:45:16.414Z,29.896
2022-07-25T08:50:16.457Z,29.890
2022-07-25T08:55:16.432Z,29.890
2022-07-25T09:00:16.473Z,29.888
2022-07-25T09:05:16.642Z,29.887
2022-07-25T09:10:16.629Z,29.880
2022-07-25T09:15:16.541Z,29.876
2022-07-25T09:20:18.648Z,29.877
2022-07-25T09:25:16.428Z,29.870
2022-07-25T09:30:16.624Z,29.868
2022-07-25T09:35:16.452Z,29.871
2022-07-25T09:40:16.630Z,29.867
2022-07-25T09:45:16.580Z,29.870
2022-07-25T09:50:16.497Z,29.867
2022-07-25T09:55:16.544Z,29.869
2022-07-25T10:00:19.472Z,29.866
2022-07-25T10:05:16.754Z,29.867
2022-07-25T10:10:16.645Z,29.862
2022-07-25T10:15:16.594Z,29.862
2022-07-25T10:20:16.590Z,29.860
2022-07-25T10:25:16.552Z,29.857
2022-07-25T10:30:16.629Z,29.859
2022-07-25T10:35:16.655Z,29.863
2022-07-25T10:40:16.756Z,29.862
2022-07-25T10:45:16.678Z,29.861
2022-07-25T10:50:29.767Z,29.862
2022-07-25T10:55:16.671Z,29.859
2022-07-25T11:00:16.812Z,29.859
2022-07-25T11:05:16.765Z,29.856
2022-07-25T11:10:16.723Z,29.857
2022-07-25T11:15:17.421Z,29.857
2022-07-25T11:20:16.791Z,29.856
2022-07-25T11:25:16.845Z,29.858
2022-07-25T11:30:16.791Z,29.856
2022-07-25T11:35:16.786Z,29.855
2022-07-25T11:40:16.770Z,29.855
2022-07-25T11:45:16.859Z,29.857
2022-07-25T11:50:17.102Z,29.857
2022-07-25T11:55:16.788Z,29.859
2022-07-25T12:00:16.794Z,29.865
2022-07-25T12:05:16.881Z,29.863
2022-07-25T12:10:16.883Z,29.864
2022-07-25T12:15:16.876Z,29.862
2022-07-25T12:20:16.966Z,29.863
2022-07-25T12:25:16.955Z,29.862
2022-07-25T12:30:16.923Z,29.863
2022-07-25T12:35:16.993Z,29.861
2022-07-25T12:40:16.947Z,29.865
2022-07-25T12:45:16.915Z,29.864
2022-07-25T12:50:16.884Z,29.862
2022-07-25T12:55:17.079Z,29.858
2022-07-25T13:00:17.107Z,29.860
2022-07-25T13:05:16.975Z,29.861
2022-07-25T13:10:17.092Z,29.857
2022-07-25T13:15:17.199Z,29.857
2022-07-25T13:20:17.005Z,29.856
2022-07-25T13:25:17.192Z,29.856
2022-07-25T13:30:17.010Z,29.857
2022-07-25T13:35:20.495Z,29.856
2022-07-25T13:40:17.231Z,29.855
2022-07-25T13:45:17.130Z,29.853
2022-07-25T13:50:17.087Z,29.855
2022-07-25T13:55:17.126Z,29.854
2022-07-25T14:00:17.159Z,29.856
2022-07-25T14:05:17.175Z,29.859
2022-07-25T14:10:17.219Z,29.862
2022-07-25T14:15:17.153Z,29.859
2022-07-25T14:20:17.345Z,29.860
2022-07-25T14:25:17.163Z,29.858
2022-07-25T14:30:17.151Z,29.861
2022-07-25T14:35:17.187Z,29.862
2022-07-25T14:40:17.252Z,29.863
2022-07-25T14:45:17.438Z,29.863
2022-07-25T14:50:17.298Z,29.864
2022-07-25T14:55:17.266Z,29.866
2022-07-25T15:00:15.471Z,29.864
2022-07-25T15:05:17.386Z,29.862
2022-07-25T15:10:17.327Z,29.862
2022-07-25T15:15:17.297Z,29.859
2022-07-25T15:20:17.399Z,29.859
2022-07-25T15:25:51.068Z,29.859
2022-07-25T15:30:17.293Z,29.857
2022-07-25T15:35:17.485Z,29.854
2022-07-25T15:40:17.376Z,29.856
2022-07-25T15:45:32.489Z,29.854
2022-07-25T15:50:17.381Z,29.857
2022-07-25T15:55:15.492Z,29.857
2022-07-25T16:00:15.389Z,29.857
2022-07-25T16:05:15.455Z,29.857
2022-07-25T16:10:15.659Z,29.854
2022-07-25T16:15:15.431Z,29.850
2022-07-25T16:20:15.472Z,29.853
2022-07-25T16:25:15.557Z,29.843
2022-07-25T16:30:15.509Z,29.842
2022-07-25T16:35:15.605Z,29.839
2022-07-25T16:40:15.647Z,29.834
2022-07-25T16:45:15.788Z,29.836
2022-07-25T16:50:15.611Z,29.831
2022-07-25T16:55:15.741Z,29.832
2022-07-25T17:00:15.667Z,29.836
2022-07-25T17:05:15.588Z,29.832
2022-07-25T17:10:15.496Z,29.833
2022-07-25T17:15:15.545Z,29.832
2022-07-25T17:20:15.758Z,29.836
2022-07-25T17:25:15.644Z,29.836
2022-07-25T17:30:15.574Z,29.833
2022-07-25T17:35:15.607Z,29.831
2022-07-25T17:40:15.702Z,29.825
2022-07-25T17:45:15.662Z,29.820
2022-07-25T17:50:15.839Z,29.826
2022-07-25T17:55:15.680Z,29.817
2022-07-25T18:00:15.676Z,29.814
2022-07-25T18:05:15.950Z,29.813
2022-07-25T18:10:15.703Z,29.803
2022-07-25T18:15:15.649Z,29.807
2022-07-25T18:20:15.687Z,29.800
2022-07-25T18:25:15.793Z,29.807
2022-07-25T18:30:16.030Z,29.808
2022-07-25T18:35:15.717Z,29.810
2022-07-25T18:40:15.759Z,29.806
2022-07-25T18:45:15.700Z,29.809
2022-07-25T18:50:15.779Z,29.805
2022-07-25T18:55:15.757Z,29.809
2022-07-25T19:00:15.814Z,29.808
2022-07-25T19:05:16.040Z,29.809
2022-07-25T19:10:15.850Z,29.799
2022-07-25T19:15:15.875Z,29.796
2022-07-25T19:20:16.011Z,29.796
2022-07-25T19:25:15.952Z,29.795
2022-07-25T19:30:17.512Z,29.800
2022-07-25T19:35:16.050Z,29.803
2022-07-25T19:40:15.980Z,29.804
2022-07-25T19:45:15.913Z,29.808
2022-07-25T19:50:15.933Z,29.803
2022-07-25T19:55:15.969Z,29.801
2022-07-25T20:00:16.028Z,29.802
2022-07-25T20:05:15.959Z,29.800
2022-07-25T20:10:17.766Z,29.799
2022-07-25T20:15:16.203Z,29.800
2022-07-25T20:20:15.999Z,29.800
2022-07-25T20:25:16.074Z,29.796
2022-07-25T20:30:16.031Z,29.798
2022-07-25T20:35:16.053Z,29.801
2022-07-25T20:40:16.328Z,29.804
2022-07-25T20:45:16.025Z,29.800
2022-07-25T20:50:16.060Z,29.797
2022-07-25T20:55:16.278Z,29.797
2022-07-25T21:00:16.055Z,29.793
2022-07-25T21:05:16.051Z,29.793
2022-07-25T21:10:16.169Z,29.801
2022-07-25T21:15:16.232Z,29.800
2022-07-25T21:20:16.173Z,29.802
2022-07-25T21:25:16.286Z,29.799
2022-07-25T21:30:16.092Z,29.801
2022-07-25T21:35:16.295Z,29.800
2022-07-25T21:40:16.265Z,29.793
2022-07-25T21:45:16.306Z,29.793
2022-07-25T21:50:19.256Z,29.793
2022-07-25T21:55:16.199Z,29.796
2022-07-25T22:00:16.496Z,29.800
2022-07-25T22:05:16.196Z,29.797
2022-07-25T22:10:16.240Z,29.799
2022-07-25T22:15:16.340Z,29.800
2022-07-25T22:20:16.259Z,29.797
2022-07-25T22:25:16.326Z,29.799
2022-07-25T22:30:19.120Z,29.801
2022-07-25T22:35:16.303Z,29.805
2022-07-25T22:40:16.353Z,29.804
2022-07-25T22:45:16.367Z,29.806
2022-07-25T22:50:16.429Z,29.801
2022-07-25T22:55:16.513Z,29.808
2022-07-25T23:00:16.591Z,29.809
2022-07-25T23:05:16.475Z,29.811
2022-07-25T23:10:16.329Z,29.814
2022-07-25T23:15:16.502Z,29.808
2022-07-25T23:20:16.550Z,29.809
2022-07-25T23:25:16.489Z,29.815
2022-07-25T23:30:16.343Z,29.820
2022-07-25T23:35:16.619Z,29.820
2022-07-25T23:40:16.419Z,29.820
2022-07-25T23:45:16.590Z,29.819
2022-07-25T23:50:16.454Z,29.824
2022-07-25T23:55:16.617Z,29.825
